Station Historical Data
Daily Summary for November 17, 2017 Units:  English    Metric   Both
« Previous Day
Next Day »
Daily Weekly Monthly Yearly Custom
  High: Low: Average:
Temperature: 36.9 °F 30.3 °F 33.4 °F
Dew Point: 28.0 °F 22.0 °F 25.5 °F
Humidity: 78% 66% 73%
Wind Speed: 8.0mph 0.0mph 2mph
Wind Gust: 14.0mph - -
Wind- - WSW
Pressure: 30.30 in 29.90 in -
Precipitation: 0.00 in    
Historical Graphs
 
 
Tabular Data for November 17, 2017
Time Temperature Dew Point Pressure Wind Wind Speed Wind Gust Humidity Rainfall Rate (Hourly)
00:09 34.8 °F 27.0 °F 30.15 in WNW 2.0 mph 8.0 mph 73% 0.00 in
00:14 34.7 °F 27.3 °F 30.15 in NNW 5.0 mph 11.0 mph 74% 0.00 in
00:19 34.5 °F 27.1 °F 30.16 in NW 4.0 mph 11.0 mph 74% 0.00 in
00:24 34.5 °F 27.4 °F 30.16 in NW 4.0 mph 10.0 mph 75% 0.00 in
00:29 34.4 °F 27.0 °F 30.15 in WNW 1.0 mph 11.0 mph 74% 0.00 in
00:34 34.4 °F 27.0 °F 30.16 in WNW 4.0 mph 9.0 mph 74% 0.00 in
00:39 34.4 °F 27.0 °F 30.16 in WNW 3.0 mph 13.0 mph 74% 0.00 in
00:44 34.3 °F 27.2 °F 30.16 in NW 6.0 mph 13.0 mph 75% 0.00 in
00:49 34.3 °F 27.2 °F 30.16 in NW 8.0 mph 13.0 mph 75% 0.00 in
00:54 34.1 °F 27.0 °F 30.17 in NNW 4.0 mph 11.0 mph 75% 0.00 in
00:59 34.0 °F 26.9 °F 30.17 in WNW 2.0 mph 9.0 mph 75% 0.00 in
01:04 34.0 °F 26.9 °F 30.17 in NNW 4.0 mph 10.0 mph 75% 0.00 in
01:09 33.9 °F 26.5 °F 30.17 in NNW 4.0 mph 10.0 mph 74% 0.00 in
01:14 33.8 °F 26.4 °F 30.17 in NW 5.0 mph 10.0 mph 74% 0.00 in
01:19 33.8 °F 26.4 °F 30.18 in NW 5.0 mph 10.0 mph 74% 0.00 in
01:24 33.8 °F 26.4 °F 30.17 in NW 6.0 mph 12.0 mph 74% 0.00 in
01:29 33.8 °F 26.4 °F 30.18 in NW 1.0 mph 8.0 mph 74% 0.00 in
01:34 33.7 °F 26.3 °F 30.18 in WNW 6.0 mph 11.0 mph 74% 0.00 in
01:39 33.7 °F 26.3 °F 30.18 in NW 5.0 mph 11.0 mph 74% 0.00 in
01:44 33.7 °F 26.3 °F 30.18 in NW 5.0 mph 10.0 mph 74% 0.00 in
01:49 33.7 °F 26.3 °F 30.18 in North 5.0 mph 10.0 mph 74% 0.00 in
01:54 33.7 °F 26.6 °F 30.18 in WNW 1.0 mph 9.0 mph 75% 0.00 in
01:59 33.6 °F 26.5 °F 30.19 in WNW 1.0 mph 9.0 mph 75% 0.00 in
02:04 33.7 °F 26.6 °F 30.19 in NW 2.0 mph 9.0 mph 75% 0.00 in
02:09 33.6 °F 26.5 °F 30.19 in WNW 3.0 mph 9.0 mph 75% 0.00 in
02:14 33.6 °F 26.5 °F 30.20 in NW 4.0 mph 11.0 mph 75% 0.00 in
02:19 33.6 °F 26.5 °F 30.20 in NW 5.0 mph 12.0 mph 75% 0.00 in
02:24 33.5 °F 26.4 °F 30.20 in NW 5.0 mph 12.0 mph 75% 0.00 in
02:29 33.5 °F 26.4 °F 30.20 in WNW 6.0 mph 12.0 mph 75% 0.00 in
02:34 33.5 °F 26.4 °F 30.20 in WNW 3.0 mph 9.0 mph 75% 0.00 in
02:39 33.4 °F 26.3 °F 30.20 in NW 4.0 mph 9.0 mph 75% 0.00 in
02:44 33.4 °F 26.3 °F 30.21 in NW 5.0 mph 11.0 mph 75% 0.00 in
02:49 33.4 °F 26.6 °F 30.21 in NW 4.0 mph 11.0 mph 76% 0.00 in
02:54 33.3 °F 26.5 °F 30.21 in NW 2.0 mph 9.0 mph 76% 0.00 in
02:59 33.3 °F 26.5 °F 30.21 in NNW 3.0 mph 8.0 mph 76% 0.00 in
03:04 33.2 °F 26.5 °F 30.21 in NW 3.0 mph 10.0 mph 76% 0.00 in
03:09 33.1 °F 26.4 °F 30.21 in NW 4.0 mph 10.0 mph 76% 0.00 in
03:14 33.1 °F 26.4 °F 30.22 in NW 4.0 mph 14.0 mph 76% 0.00 in
03:19 33.0 °F 26.3 °F 30.22 in NW 4.0 mph 14.0 mph 76% 0.00 in
03:24 33.0 °F 26.3 °F 30.22 in NW 1.0 mph 9.0 mph 76% 0.00 in
03:29 33.0 °F 26.3 °F 30.22 in WNW 4.0 mph 8.0 mph 76% 0.00 in
03:34 33.0 °F 26.3 °F 30.22 in West 3.0 mph 5.0 mph 76% 0.00 in
03:39 32.9 °F 26.2 °F 30.22 in WNW 3.0 mph 7.0 mph 76% 0.00 in
03:44 32.9 °F 26.2 °F 30.22 in WNW 3.0 mph 8.0 mph 76% 0.00 in
03:49 32.8 °F 26.1 °F 30.23 in WNW 4.0 mph 9.0 mph 76% 0.00 in
03:54 32.9 °F 26.2 °F 30.23 in WNW 4.0 mph 9.0 mph 76% 0.00 in
03:59 32.8 °F 25.7 °F 30.23 in North 3.0 mph 9.0 mph 75% 0.00 in
04:04 32.7 °F 25.6 °F 30.23 in NW 4.0 mph 9.0 mph 75% 0.00 in
04:09 32.7 °F 25.3 °F 30.23 in NNW 5.0 mph 10.0 mph 74% 0.00 in
04:14 32.7 °F 25.3 °F 30.22 in NW 1.0 mph 8.0 mph 74% 0.00 in
04:19 32.7 °F 25.3 °F 30.22 in West 3.0 mph 8.0 mph 74% 0.00 in
04:24 32.7 °F 25.3 °F 30.23 in WNW 2.0 mph 5.0 mph 74% 0.00 in
04:29 32.7 °F 25.3 °F 30.23 in WNW 5.0 mph 7.0 mph 74% 0.00 in
04:34 32.6 °F 25.2 °F 30.23 in NW 3.0 mph 7.0 mph 74% 0.00 in
04:39 32.6 °F 25.2 °F 30.23 in NW 3.0 mph 8.0 mph 74% 0.00 in
04:44 32.6 °F 25.2 °F 30.23 in NW 3.0 mph 8.0 mph 74% 0.00 in
04:49 32.7 °F 25.3 °F 30.23 in WNW 5.0 mph 10.0 mph 74% 0.00 in
04:54 32.6 °F 25.2 °F 30.23 in NW 4.0 mph 10.0 mph 74% 0.00 in
04:59 32.6 °F 25.2 °F 30.24 in WNW 5.0 mph 9.0 mph 74% 0.00 in
05:04 32.6 °F 25.2 °F 30.24 in WNW 5.0 mph 7.0 mph 74% 0.00 in
05:09 32.6 °F 25.2 °F 30.24 in NW 3.0 mph 7.0 mph 74% 0.00 in
05:14 32.4 °F 24.7 °F 30.23 in NNW 6.0 mph 10.0 mph 73% 0.00 in
05:19 32.3 °F 24.6 °F 30.24 in NW 3.0 mph 7.0 mph 73% 0.00 in
05:24 32.2 °F 24.5 °F 30.24 in WNW 2.0 mph 9.0 mph 73% 0.00 in
05:29 32.2 °F 24.5 °F 30.24 in NNW 3.0 mph 8.0 mph 73% 0.00 in
05:34 32.1 °F 24.4 °F 30.24 in NW 3.0 mph 8.0 mph 73% 0.00 in
05:39 32.1 °F 24.4 °F 30.24 in NNW 2.0 mph 6.0 mph 73% 0.00 in
05:44 32.0 °F 24.0 °F 30.24 in NW 3.0 mph 8.0 mph 72% 0.00 in
05:49 32.0 °F 24.3 °F 30.25 in Calm   4.0 mph 73% 0.00 in
05:54 31.9 °F 23.9 °F 30.24 in NNW 1.0 mph 8.0 mph 72% 0.00 in
05:59 31.8 °F 23.8 °F 30.24 in NNW 2.0 mph 7.0 mph 72% 0.00 in
06:04 31.7 °F 23.7 °F 30.24 in North 3.0 mph 7.0 mph 72% 0.00 in
06:09 31.6 °F 23.6 °F 30.24 in North 3.0 mph 7.0 mph 72% 0.00 in
06:14 31.5 °F 23.5 °F 30.24 in NW 3.0 mph 8.0 mph 72% 0.00 in
06:19 31.3 °F 23.3 °F 30.25 in NW 2.0 mph 7.0 mph 72% 0.00 in
06:24 31.1 °F 22.8 °F 30.25 in Calm   4.0 mph 71% 0.00 in
06:29 31.0 °F 23.0 °F 30.25 in NNW 1.0 mph 4.0 mph 72% 0.00 in
06:34 30.8 °F 22.8 °F 30.25 in NNW 1.0 mph 6.0 mph 72% 0.00 in
06:39 30.9 °F 22.9 °F 30.26 in NNW 2.0 mph 7.0 mph 72% 0.00 in
06:44 30.9 °F 22.9 °F 30.26 in North 3.0 mph 5.0 mph 72% 0.00 in
06:49 30.8 °F 22.8 °F 30.26 in Calm   7.0 mph 72% 0.00 in
06:54 30.7 °F 22.7 °F 30.26 in Calm   8.0 mph 72% 0.00 in
06:59 30.7 °F 22.7 °F 30.27 in NNW 2.0 mph 8.0 mph 72% 0.00 in
07:04 30.6 °F 22.6 °F 30.27 in NNW 2.0 mph 4.0 mph 72% 0.00 in
07:09 30.5 °F 22.5 °F 30.27 in North 3.0 mph 7.0 mph 72% 0.00 in
07:14 30.5 °F 22.5 °F 30.27 in North 2.0 mph 7.0 mph 72% 0.00 in
07:19 30.4 °F 22.4 °F 30.28 in NNW 1.0 mph 10.0 mph 72% 0.00 in
07:24 30.3 °F 22.0 °F 30.28 in NNW 3.0 mph 10.0 mph 71% 0.00 in
07:29 30.4 °F 22.4 °F 30.28 in NW 3.0 mph 5.0 mph 72% 0.00 in
07:34 30.5 °F 22.9 °F 30.28 in North 2.0 mph 5.0 mph 73% 0.00 in
07:39 30.5 °F 22.5 °F 30.29 in NNW 1.0 mph 8.0 mph 72% 0.00 in
07:44 30.5 °F 22.5 °F 30.29 in NNW 4.0 mph 9.0 mph 72% 0.00 in
07:54 30.6 °F 22.6 °F 30.29 in North 5.0 mph 6.0 mph 72% 0.00 in
07:59 30.6 °F 22.6 °F 30.29 in NNW 3.0 mph 6.0 mph 72% 0.00 in
08:04 30.6 °F 22.6 °F 30.29 in North 3.0 mph 6.0 mph 72% 0.00 in
08:09 30.6 °F 22.6 °F 30.29 in North 2.0 mph 6.0 mph 72% 0.00 in
08:14 30.7 °F 22.7 °F 30.29 in NNW 2.0 mph 4.0 mph 72% 0.00 in
08:19 30.8 °F 22.8 °F 30.30 in NW 2.0 mph 6.0 mph 72% 0.00 in
08:24 30.9 °F 22.9 °F 30.30 in NW 1.0 mph 5.0 mph 72% 0.00 in
08:29 30.9 °F 22.9 °F 30.29 in NW 2.0 mph 7.0 mph 72% 0.00 in
08:34 31.0 °F 23.0 °F 30.29 in NNW 2.0 mph 7.0 mph 72% 0.00 in
08:39 30.9 °F 22.9 °F 30.30 in North 3.0 mph 6.0 mph 72% 0.00 in
08:44 30.8 °F 22.8 °F 30.30 in Calm   5.0 mph 72% 0.00 in
08:49 31.0 °F 23.0 °F 30.30 in NNE 2.0 mph 3.0 mph 72% 0.00 in
08:54 31.1 °F 23.1 °F 30.30 in NE 2.0 mph 4.0 mph 72% 0.00 in
08:59 31.0 °F 22.7 °F 30.30 in Calm   2.0 mph 71% 0.00 in
09:04 31.0 °F 23.0 °F 30.30 in NNE 1.0 mph 7.0 mph 72% 0.00 in
09:09 31.3 °F 23.3 °F 30.30 in NW 2.0 mph 7.0 mph 72% 0.00 in
09:14 31.1 °F 23.1 °F 30.30 in WNW 3.0 mph 6.0 mph 72% 0.00 in
09:19 31.1 °F 23.1 °F 30.30 in NW 3.0 mph 8.0 mph 72% 0.00 in
09:24 31.1 °F 22.8 °F 30.30 in NNW 2.0 mph 8.0 mph 71% 0.00 in
09:29 31.0 °F 22.7 °F 30.30 in North 1.0 mph 4.0 mph 71% 0.00 in
09:34 31.1 °F 22.8 °F 30.30 in Calm   4.0 mph 71% 0.00 in
09:39 30.9 °F 22.3 °F 30.30 in NNW 1.0 mph 4.0 mph 70% 0.00 in
09:44 30.9 °F 22.6 °F 30.29 in NE 2.0 mph 5.0 mph 71% 0.00 in
09:49 31.0 °F 22.7 °F 30.29 in Calm   4.0 mph 71% 0.00 in
09:54 31.3 °F 23.3 °F 30.29 in NW 2.0 mph 6.0 mph 72% 0.00 in
09:59 31.7 °F 23.4 °F 30.30 in West 1.0 mph 3.0 mph 71% 0.00 in
10:04 31.6 °F 23.3 °F 30.30 in NNW 2.0 mph 5.0 mph 71% 0.00 in
10:09 31.4 °F 23.1 °F 30.29 in Calm   5.0 mph 71% 0.00 in
10:14 31.7 °F 23.4 °F 30.29 in NW 2.0 mph 5.0 mph 71% 0.00 in
10:19 31.7 °F 23.0 °F 30.29 in NNW 1.0 mph 5.0 mph 70% 0.00 in
10:24 31.4 °F 22.7 °F 30.29 in NNW 2.0 mph 4.0 mph 70% 0.00 in
10:29 31.6 °F 23.3 °F 30.29 in SSW 1.0 mph 4.0 mph 71% 0.00 in
10:34 32.1 °F 23.8 °F 30.29 in Calm   5.0 mph 71% 0.00 in
10:39 32.4 °F 23.7 °F 30.28 in WSW 2.0 mph 7.0 mph 70% 0.00 in
10:44 32.4 °F 23.4 °F 30.28 in WSW 2.0 mph 7.0 mph 69% 0.00 in
10:49 32.3 °F 23.3 °F 30.28 in SW 2.0 mph 6.0 mph 69% 0.00 in
10:54 32.6 °F 23.9 °F 30.28 in SW 1.0 mph 4.0 mph 70% 0.00 in
10:59 32.9 °F 24.2 °F 30.28 in West 2.0 mph 5.0 mph 70% 0.00 in
11:04 33.0 °F 23.9 °F 30.28 in NW 2.0 mph 7.0 mph 69% 0.00 in
11:09 33.1 °F 24.4 °F 30.27 in West 3.0 mph 6.0 mph 70% 0.00 in
11:14 32.8 °F 23.7 °F 30.27 in NNW 1.0 mph 7.0 mph 69% 0.00 in
11:19 32.9 °F 23.8 °F 30.27 in NW 3.0 mph 7.0 mph 69% 0.00 in
11:24 33.2 °F 24.5 °F 30.27 in NW 2.0 mph 6.0 mph 70% 0.00 in
11:29 33.3 °F 24.6 °F 30.27 in WNW 2.0 mph 6.0 mph 70% 0.00 in
11:34 33.3 °F 24.6 °F 30.26 in West 3.0 mph 7.0 mph 70% 0.00 in
11:39 33.8 °F 25.0 °F 30.26 in West 2.0 mph 7.0 mph 70% 0.00 in
11:44 33.5 °F 24.4 °F 30.26 in WNW 4.0 mph 5.0 mph 69% 0.00 in
11:49 33.8 °F 25.0 °F 30.25 in West 3.0 mph 5.0 mph 70% 0.00 in
11:54 33.9 °F 25.1 °F 30.25 in West 3.0 mph 5.0 mph 70% 0.00 in
11:59 34.1 °F 24.6 °F 30.25 in WSW 3.0 mph 7.0 mph 68% 0.00 in
12:04 33.8 °F 24.0 °F 30.25 in West 2.0 mph 6.0 mph 67% 0.00 in
12:09 33.4 °F 24.0 °F 30.25 in WSW 5.0 mph 9.0 mph 68% 0.00 in
12:14 33.3 °F 23.9 °F 30.25 in SW 3.0 mph 8.0 mph 68% 0.00 in
12:19 34.0 °F 24.9 °F 30.24 in SW 5.0 mph 6.0 mph 69% 0.00 in
12:24 34.8 °F 25.3 °F 30.24 in SW 4.0 mph 9.0 mph 68% 0.00 in
12:29 35.7 °F 25.4 °F 30.24 in SW 4.0 mph 9.0 mph 66% 0.00 in
12:34 34.8 °F 24.6 °F 30.24 in SW 4.0 mph 8.0 mph 66% 0.00 in
12:39 33.7 °F 23.9 °F 30.24 in SW 3.0 mph 5.0 mph 67% 0.00 in
12:44 34.0 °F 24.2 °F 30.24 in West 4.0 mph 7.0 mph 67% 0.00 in
12:49 33.7 °F 23.9 °F 30.24 in SW 4.0 mph 7.0 mph 67% 0.00 in
12:54 33.7 °F 24.3 °F 30.24 in SSW 4.0 mph 8.0 mph 68% 0.00 in
12:59 33.5 °F 24.1 °F 30.24 in SSW 4.0 mph 8.0 mph 68% 0.00 in
13:04 33.5 °F 24.1 °F 30.23 in West 3.0 mph 6.0 mph 68% 0.00 in
13:09 33.8 °F 24.7 °F 30.23 in WSW 3.0 mph 8.0 mph 69% 0.00 in
13:14 33.5 °F 24.4 °F 30.23 in SSW 4.0 mph 10.0 mph 69% 0.00 in
13:19 33.5 °F 24.4 °F 30.23 in WSW 5.0 mph 8.0 mph 69% 0.00 in
13:24 33.6 °F 24.9 °F 30.23 in WSW 5.0 mph 7.0 mph 70% 0.00 in
13:29 33.6 °F 24.5 °F 30.22 in WSW 4.0 mph 7.0 mph 69% 0.00 in
13:34 33.8 °F 25.4 °F 30.22 in WSW 2.0 mph 5.0 mph 71% 0.00 in
13:39 33.8 °F 25.0 °F 30.22 in SW 3.0 mph 6.0 mph 70% 0.00 in
13:44 33.7 °F 25.6 °F 30.22 in SW 2.0 mph 6.0 mph 72% 0.00 in
13:49 33.9 °F 25.5 °F 30.22 in SW 1.0 mph 4.0 mph 71% 0.00 in
13:54 34.0 °F 25.6 °F 30.22 in Calm   4.0 mph 71% 0.00 in
13:59 34.3 °F 25.9 °F 30.22 in WSW 2.0 mph 3.0 mph 71% 0.00 in
14:04 34.4 °F 26.0 °F 30.22 in SW 1.0 mph 3.0 mph 71% 0.00 in
14:14 34.8 °F 26.0 °F 30.20 in SW 2.0 mph 7.0 mph 70% 0.00 in
14:19 35.0 °F 26.2 °F 30.20 in SW 2.0 mph 7.0 mph 70% 0.00 in
14:24 35.2 °F 26.4 °F 30.20 in SSW 1.0 mph 5.0 mph 70% 0.00 in
14:29 34.9 °F 26.1 °F 30.19 in WSW 2.0 mph 5.0 mph 70% 0.00 in
14:34 35.2 °F 26.7 °F 30.19 in SW 1.0 mph 5.0 mph 71% 0.00 in
14:44 36.3 °F 27.4 °F 30.19 in West 2.0 mph 5.0 mph 70% 0.00 in
14:49 36.5 °F 27.3 °F 30.19 in West 4.0 mph 6.0 mph 69% 0.00 in
14:54 36.7 °F 27.8 °F 30.18 in West 2.0 mph 5.0 mph 70% 0.00 in
14:59 36.8 °F 27.9 °F 30.18 in SW 4.0 mph 6.0 mph 70% 0.00 in
15:04 36.8 °F 27.6 °F 30.18 in West 5.0 mph 8.0 mph 69% 0.00 in
15:09 36.4 °F 27.5 °F 30.18 in SW 4.0 mph 10.0 mph 70% 0.00 in
15:14 36.5 °F 27.6 °F 30.18 in WSW 3.0 mph 10.0 mph 70% 0.00 in
15:19 36.7 °F 27.8 °F 30.18 in WSW 2.0 mph 4.0 mph 70% 0.00 in
15:24 36.7 °F 27.5 °F 30.17 in WSW 1.0 mph 4.0 mph 69% 0.00 in
15:29 36.9 °F 28.0 °F 30.16 in SW 2.0 mph 6.0 mph 70% 0.00 in
15:34 36.7 °F 27.8 °F 30.16 in WSW 3.0 mph 6.0 mph 70% 0.00 in
15:39 36.8 °F 27.9 °F 30.16 in West 2.0 mph 5.0 mph 70% 0.00 in
15:44 36.5 °F 27.6 °F 30.16 in WSW 2.0 mph 6.0 mph 70% 0.00 in
15:49 36.4 °F 27.9 °F 30.15 in SSW 4.0 mph 5.0 mph 71% 0.00 in
15:54 36.2 °F 27.7 °F 30.14 in South 2.0 mph 6.0 mph 71% 0.00 in
15:59 36.1 °F 27.6 °F 30.14 in Calm   6.0 mph 71% 0.00 in
16:04 35.9 °F 27.7 °F 30.15 in Calm   3.0 mph 72% 0.00 in
16:09 35.6 °F 27.5 °F 30.14 in Calm   2.0 mph 72% 0.00 in
16:14 35.5 °F 27.4 °F 30.14 in Calm   2.0 mph 72% 0.00 in
16:19 35.5 °F 27.7 °F 30.13 in Calm   2.0 mph 73% 0.00 in
16:24 35.8 °F 28.0 °F 30.13 in Calm   1.0 mph 73% 0.00 in
16:29 35.9 °F 27.7 °F 30.13 in Calm   3.0 mph 72% 0.00 in
16:34 36.0 °F 27.8 °F 30.13 in SE 1.0 mph 3.0 mph 72% 0.00 in
16:39 36.0 °F 27.5 °F 30.13 in East 2.0 mph 3.0 mph 71% 0.00 in
16:44 35.9 °F 27.4 °F 30.13 in Calm   3.0 mph 71% 0.00 in
16:49 35.9 °F 27.4 °F 30.13 in ESE 1.0 mph 3.0 mph 71% 0.00 in
16:54 35.9 °F 27.4 °F 30.13 in ESE 1.0 mph 3.0 mph 71% 0.00 in
16:59 35.9 °F 27.4 °F 30.13 in East 2.0 mph 3.0 mph 71% 0.00 in
17:04 35.9 °F 27.4 °F 30.13 in Calm   3.0 mph 71% 0.00 in
17:09 35.9 °F 27.4 °F 30.12 in Calm   3.0 mph 71% 0.00 in
17:14 35.9 °F 27.4 °F 30.11 in Calm   5.0 mph 71% 0.00 in
17:19 35.8 °F 27.3 °F 30.11 in East 1.0 mph 3.0 mph 71% 0.00 in
17:24 35.7 °F 26.9 °F 30.11 in East 1.0 mph 6.0 mph 70% 0.00 in
17:29 35.6 °F 27.1 °F 30.10 in East 2.0 mph 6.0 mph 71% 0.00 in
17:34 35.5 °F 27.0 °F 30.10 in East 1.0 mph 3.0 mph 71% 0.00 in
17:39 35.4 °F 26.9 °F 30.10 in Calm   3.0 mph 71% 0.00 in
17:44 35.3 °F 26.5 °F 30.10 in SE 1.0 mph 4.0 mph 70% 0.00 in
17:49 35.3 °F 26.8 °F 30.10 in ESE 1.0 mph 4.0 mph 71% 0.00 in
17:54 35.3 °F 26.5 °F 30.10 in Calm   3.0 mph 70% 0.00 in
17:59 35.2 °F 26.7 °F 30.10 in ESE 1.0 mph 3.0 mph 71% 0.00 in
18:04 35.2 °F 26.7 °F 30.10 in East 1.0 mph 3.0 mph 71% 0.00 in
18:09 35.2 °F 26.7 °F 30.10 in Calm   2.0 mph 71% 0.00 in
18:14 35.2 °F 26.7 °F 30.10 in ENE 3.0 mph 5.0 mph 71% 0.00 in
18:19 35.2 °F 26.7 °F 30.09 in Calm   4.0 mph 71% 0.00 in
18:24 35.1 °F 26.6 °F 30.09 in ENE 3.0 mph 5.0 mph 71% 0.00 in
18:34 34.8 °F 26.4 °F 30.08 in ENE 2.0 mph 5.0 mph 71% 0.00 in
18:39 34.8 °F 26.7 °F 30.08 in East 1.0 mph 5.0 mph 72% 0.00 in
18:44 34.8 °F 26.7 °F 30.08 in East 1.0 mph 5.0 mph 72% 0.00 in
18:49 34.8 °F 26.7 °F 30.07 in East 2.0 mph 5.0 mph 72% 0.00 in
18:54 34.8 °F 26.7 °F 30.07 in East 3.0 mph 5.0 mph 72% 0.00 in
18:59 34.8 °F 26.7 °F 30.07 in ENE 2.0 mph 5.0 mph 72% 0.00 in
19:04 34.8 °F 26.7 °F 30.06 in East 1.0 mph 6.0 mph 72% 0.00 in
19:09 34.8 °F 26.7 °F 30.06 in East 1.0 mph 6.0 mph 72% 0.00 in
19:14 34.9 °F 26.4 °F 30.06 in SE 2.0 mph 5.0 mph 71% 0.00 in
19:19 34.9 °F 26.4 °F 30.06 in Calm   3.0 mph 71% 0.00 in
19:24 34.8 °F 26.4 °F 30.05 in SSE 1.0 mph 5.0 mph 71% 0.00 in
19:29 34.8 °F 26.7 °F 30.05 in ESE 3.0 mph 3.0 mph 72% 0.00 in
19:34 34.8 °F 26.7 °F 30.05 in Calm   3.0 mph 72% 0.00 in
19:39 34.7 °F 26.6 °F 30.05 in ESE 1.0 mph 3.0 mph 72% 0.00 in
19:44 34.7 °F 26.6 °F 30.04 in Calm   3.0 mph 72% 0.00 in
19:49 34.6 °F 26.5 °F 30.04 in Calm   5.0 mph 72% 0.00 in
19:54 34.3 °F 26.2 °F 30.04 in Calm   5.0 mph 72% 0.00 in
19:59 34.1 °F 26.3 °F 30.03 in Calm   3.0 mph 73% 0.00 in
20:04 34.0 °F 26.3 °F 30.02 in Calm   3.0 mph 73% 0.00 in
20:09 34.0 °F 26.3 °F 30.02 in ESE 1.0 mph 4.0 mph 73% 0.00 in
20:14 33.8 °F 26.1 °F 30.02 in ESE 1.0 mph 4.0 mph 73% 0.00 in
20:19 33.6 °F 26.2 °F 30.02 in ESE 1.0 mph 4.0 mph 74% 0.00 in
20:24 33.6 °F 26.2 °F 30.02 in Calm   4.0 mph 74% 0.00 in
20:29 33.5 °F 26.1 °F 30.02 in Calm     74% 0.00 in
20:34 33.4 °F 26.0 °F 30.02 in Calm     74% 0.00 in
20:39 33.2 °F 26.1 °F 30.01 in Calm     75% 0.00 in
20:44 33.1 °F 26.0 °F 30.01 in Calm     75% 0.00 in
20:49 33.1 °F 26.0 °F 30.01 in Calm   2.0 mph 75% 0.00 in
20:54 33.0 °F 25.9 °F 30.00 in Calm   2.0 mph 75% 0.00 in
20:59 33.2 °F 26.5 °F 30.00 in Calm   2.0 mph 76% 0.00 in
21:04 33.3 °F 26.5 °F 30.00 in Calm     76% 0.00 in
21:09 33.3 °F 26.5 °F 30.00 in Calm     76% 0.00 in
21:14 33.4 °F 26.3 °F 30.00 in Calm     75% 0.00 in
21:19 33.5 °F 26.4 °F 30.00 in Calm     75% 0.00 in
21:24 33.6 °F 26.5 °F 29.99 in Calm     75% 0.00 in
21:29 33.7 °F 26.6 °F 29.99 in Calm     75% 0.00 in
21:34 33.9 °F 26.8 °F 29.98 in Calm     75% 0.00 in
21:39 33.9 °F 26.8 °F 29.98 in Calm     75% 0.00 in
21:44 33.9 °F 26.8 °F 29.98 in Calm   2.0 mph 75% 0.00 in
21:49 33.9 °F 26.8 °F 29.98 in SE 1.0 mph 2.0 mph 75% 0.00 in
21:54 34.1 °F 27.0 °F 29.97 in ESE 1.0 mph 3.0 mph 75% 0.00 in
21:59 34.1 °F 27.0 °F 29.97 in SE 1.0 mph 4.0 mph 75% 0.00 in
22:04 34.2 °F 27.1 °F 29.97 in SE 1.0 mph 4.0 mph 75% 0.00 in
22:09 34.3 °F 27.2 °F 29.97 in Calm   2.0 mph 75% 0.00 in
22:24 34.1 °F 27.0 °F 29.96 in Calm     75% 0.00 in
22:25 34.1 °F 27.0 °F 29.96 in Calm   1.0 mph 75% 0.00 in
22:29 33.9 °F 26.8 °F 29.95 in Calm     75% 0.00 in
22:34 33.6 °F 26.5 °F 29.95 in Calm   2.0 mph 75% 0.00 in
22:39 33.3 °F 26.2 °F 29.95 in Calm   2.0 mph 75% 0.00 in
22:44 33.1 °F 26.4 °F 29.95 in Calm     76% 0.00 in
22:49 32.9 °F 26.2 °F 29.94 in Calm   1.0 mph 76% 0.00 in
22:54 32.7 °F 26.3 °F 29.94 in Calm     77% 0.00 in
22:59 32.5 °F 26.1 °F 29.94 in Calm     77% 0.00 in
23:04 32.3 °F 25.9 °F 29.93 in Calm     77% 0.00 in
23:09 32.2 °F 26.1 °F 29.93 in Calm     78% 0.00 in
23:14 32.2 °F 26.1 °F 29.93 in Calm     78% 0.00 in
23:19 32.2 °F 26.1 °F 29.93 in Calm     78% 0.00 in
23:24 32.2 °F 26.1 °F 29.92 in Calm     78% 0.00 in
23:29 32.1 °F 26.0 °F 29.92 in Calm     78% 0.00 in
23:34 32.3 °F 26.2 °F 29.92 in Calm     78% 0.00 in
23:39 32.2 °F 26.1 °F 29.92 in Calm     78% 0.00 in
23:49 32.8 °F 26.7 °F 29.91 in Calm     78% 0.00 in
23:54 32.9 °F 26.8 °F 29.90 in Calm     78% 0.00 in
23:59 33.0 °F 26.9 °F 29.90 in Calm     78% 0.00 in
Buffalo, New York, USA
Compliments of Weather Underground - 2.5 mb